Time;durP1;ratioP1;P1;durP2;ratioP2;P2;SDS_P1;SDS_P2;PMS_P1;PMS_P2;Temp;Humidity;BMP_temperature;BMP_pressure;BME280_temperature;BME280_humidity;BME280_pressure;Samples;Min_cycle;Max_cycle;Signal;HPM_P1;HPM_P2
2024/03/12 00:01:19;;;;;;;20.63;10.82;;;8.10;99.90;;;;;;5101182;28;20024;-77
2024/03/12 00:03:44;;;;;;;25.63;11.48;;;8.00;99.90;;;;;;5102837;28;20419;-75
2024/03/12 00:06:10;;;;;;;21.75;11.68;;;8.00;99.90;;;;;;5100350;28;20091;-75
2024/03/12 00:08:36;;;;;;;23.13;10.73;;;8.00;99.90;;;;;;5100781;28;20093;-77
2024/03/12 00:11:04;;;;;;;19.88;11.30;;;8.00;99.90;;;;;;5100618;28;20024;-76
2024/03/12 00:13:29;;;;;;;18.90;11.07;;;7.90;99.90;;;;;;5101826;28;20024;-75
2024/03/12 00:15:55;;;;;;;19.05;11.40;;;7.90;99.90;;;;;;5100554;28;20400;-76
2024/03/12 00:18:25;;;;;;;20.15;11.80;;;7.80;99.90;;;;;;5100793;28;20480;-76
2024/03/12 00:20:52;;;;;;;17.70;11.20;;;7.70;99.90;;;;;;5101057;28;20362;-77
2024/03/12 00:23:18;;;;;;;20.60;11.52;;;7.60;99.90;;;;;;5101298;28;20020;-76
2024/03/12 00:25:44;;;;;;;19.35;12.30;;;7.60;99.90;;;;;;5104675;28;20050;-75
2024/03/12 00:28:11;;;;;;;20.55;12.15;;;7.50;99.90;;;;;;5105174;28;20020;-76
2024/03/12 00:30:40;;;;;;;19.27;11.60;;;7.50;99.90;;;;;;5106120;28;20083;-76
2024/03/12 00:33:07;;;;;;;20.40;12.45;;;7.50;99.90;;;;;;5104778;28;20546;-75
2024/03/12 00:35:35;;;;;;;21.48;12.63;;;7.50;99.90;;;;;;5104784;28;20028;-76
2024/03/12 00:38:03;;;;;;;22.70;12.65;;;7.40;99.90;;;;;;5105218;28;20031;-75
2024/03/12 00:40:36;;;;;;;19.75;11.95;;;7.30;99.90;;;;;;5104581;28;20024;-76
2024/03/12 00:43:03;;;;;;;22.77;12.38;;;7.30;99.90;;;;;;5105066;28;20048;-76
2024/03/12 00:45:36;;;;;;;21.08;12.25;;;7.20;99.90;;;;;;5104916;28;20024;-75
2024/03/12 00:48:03;;;;;;;21.55;12.85;;;7.10;99.90;;;;;;5104388;28;20032;-76
2024/03/12 00:50:28;;;;;;;21.73;12.80;;;7.00;99.90;;;;;;5104374;28;20511;-74
2024/03/12 00:52:54;;;;;;;22.40;12.68;;;6.90;99.90;;;;;;5104673;28;20043;-76
2024/03/12 00:55:20;;;;;;;23.15;12.73;;;6.90;99.90;;;;;;5104372;28;20035;-75
2024/03/12 00:57:48;;;;;;;21.08;12.88;;;6.90;99.90;;;;;;5105904;28;20020;-75
2024/03/12 01:00:17;;;;;;;20.65;11.95;;;6.80;99.90;;;;;;5104701;28;20028;-75
2024/03/12 01:02:49;;;;;;;22.25;12.00;;;6.80;99.90;;;;;;5105705;28;20106;-76
2024/03/12 01:05:16;;;;;;;24.58;12.85;;;6.70;99.90;;;;;;5104708;28;20378;-76
2024/03/12 01:07:42;;;;;;;23.42;12.73;;;6.70;99.90;;;;;;5104810;28;20016;-75
2024/03/12 01:10:08;;;;;;;20.50;11.93;;;6.70;99.90;;;;;;5104264;28;20052;-75
2024/03/12 01:12:33;;;;;;;20.27;12.02;;;6.60;99.90;;;;;;5105580;28;20031;-74
2024/03/12 01:14:59;;;;;;;21.83;12.07;;;6.50;99.90;;;;;;5105155;28;20083;-74
2024/03/12 01:17:24;;;;;;;22.88;11.85;;;6.50;99.90;;;;;;5105362;28;20016;-75
2024/03/12 01:19:50;;;;;;;18.48;10.82;;;6.50;99.90;;;;;;5104296;28;20052;-76
2024/03/12 01:22:16;;;;;;;18.95;10.98;;;6.40;99.90;;;;;;5103859;28;20022;-75
2024/03/12 01:24:41;;;;;;;19.30;11.35;;;6.40;99.90;;;;;;5104051;28;21196;-74
2024/03/12 01:27:07;;;;;;;19.15;11.02;;;6.40;99.90;;;;;;5104148;28;20468;-74
2024/03/12 01:29:33;;;;;;;22.20;11.48;;;6.40;99.90;;;;;;5104861;28;20036;-75
2024/03/12 01:31:59;;;;;;;18.58;10.90;;;6.40;99.90;;;;;;5104168;28;20493;-74
2024/03/12 01:34:25;;;;;;;17.83;10.93;;;6.50;99.90;;;;;;5103207;28;20023;-76
2024/03/12 01:36:53;;;;;;;19.88;11.70;;;6.60;99.90;;;;;;5102861;28;20020;-75
2024/03/12 01:39:25;;;;;;;19.67;11.65;;;6.60;99.90;;;;;;5103432;28;20074;-75
2024/03/12 01:41:52;;;;;;;17.30;10.43;;;6.60;99.90;;;;;;5103299;28;20028;-74
2024/03/12 01:44:18;;;;;;;21.52;11.43;;;6.70;99.90;;;;;;5103680;28;20107;-75
2024/03/12 01:46:53;;;;;;;20.67;11.55;;;6.60;99.90;;;;;;5104965;28;20051;-76
2024/03/12 01:49:20;;;;;;;20.65;11.10;;;6.80;99.90;;;;;;5103191;28;20036;-75
2024/03/12 01:51:46;;;;;;;19.13;11.45;;;6.80;99.90;;;;;;5105165;28;20047;-75
2024/03/12 01:54:14;;;;;;;18.48;11.10;;;6.90;99.90;;;;;;5103618;28;20395;-74
2024/03/12 01:56:39;;;;;;;18.90;12.35;;;6.90;99.90;;;;;;5103195;28;20115;-75
2024/03/12 01:59:05;;;;;;;19.08;11.23;;;6.90;99.90;;;;;;5103453;28;20060;-75
2024/03/12 02:01:31;;;;;;;18.85;11.20;;;6.90;99.90;;;;;;5104712;28;20063;-75
2024/03/12 02:03:56;;;;;;;19.15;11.75;;;7.00;99.90;;;;;;5102477;28;20020;-76
2024/03/12 02:06:22;;;;;;;21.83;12.02;;;7.00;99.90;;;;;;5104611;28;20020;-75
2024/03/12 02:08:49;;;;;;;21.45;12.27;;;6.90;99.90;;;;;;5102942;28;20069;-76
2024/03/12 02:11:15;;;;;;;21.40;12.13;;;6.90;99.90;;;;;;5102965;28;20075;-77
2024/03/12 02:13:41;;;;;;;22.23;12.75;;;6.90;99.90;;;;;;5103425;28;20039;-76
2024/03/12 02:16:08;;;;;;;20.73;12.20;;;6.80;99.90;;;;;;5104421;28;20047;-76
2024/03/12 02:18:34;;;;;;;20.48;11.77;;;6.70;99.90;;;;;;5103736;28;20020;-76
2024/03/12 02:21:00;;;;;;;22.30;12.05;;;6.60;99.90;;;;;;5102899;28;20016;-75
2024/03/12 02:23:42;;;;;;;19.88;11.70;;;6.60;99.90;;;;;;5102960;28;20039;-76
2024/03/12 02:26:09;;;;;;;22.13;12.75;;;6.60;99.90;;;;;;5104169;28;20059;-76
2024/03/12 02:28:36;;;;;;;21.55;12.65;;;6.60;99.90;;;;;;5103823;28;20487;-75
2024/03/12 02:31:04;;;;;;;23.90;12.85;;;6.50;99.90;;;;;;5102624;28;20023;-75
2024/03/12 02:33:30;;;;;;;22.00;12.68;;;6.50;99.90;;;;;;5102585;28;20095;-74
2024/03/12 02:35:56;;;;;;;22.40;12.85;;;6.40;99.90;;;;;;5102641;28;20016;-76
2024/03/12 02:38:21;;;;;;;22.95;12.90;;;6.40;99.90;;;;;;5103654;28;20024;-75
2024/03/12 02:40:47;;;;;;;21.58;12.52;;;6.30;99.90;;;;;;5103947;28;20024;-75
2024/03/12 02:43:13;;;;;;;22.45;12.50;;;6.40;99.90;;;;;;5102846;28;20020;-76
2024/03/12 02:45:39;;;;;;;23.15;13.45;;;6.40;99.90;;;;;;5103562;28;20024;-76
2024/03/12 02:48:05;;;;;;;22.33;13.07;;;6.30;99.90;;;;;;5101780;28;20026;-75
2024/03/12 02:50:31;;;;;;;23.55;12.82;;;6.30;99.90;;;;;;5102171;28;20032;-75
2024/03/12 02:52:58;;;;;;;22.48;12.90;;;6.30;99.90;;;;;;5102045;28;20027;-74
2024/03/12 02:55:23;;;;;;;23.00;13.02;;;6.30;99.90;;;;;;5102325;28;20165;-75
2024/03/12 02:57:49;;;;;;;22.85;13.35;;;6.20;99.90;;;;;;5102318;28;20032;-76
2024/03/12 03:00:15;;;;;;;22.50;13.55;;;6.30;99.90;;;;;;5102233;28;20026;-75
2024/03/12 03:02:41;;;;;;;26.65;14.52;;;6.20;99.90;;;;;;5103643;28;20139;-74
2024/03/12 03:05:09;;;;;;;24.08;13.73;;;6.20;99.90;;;;;;5101586;28;20032;-75
2024/03/12 03:07:36;;;;;;;23.88;13.63;;;6.20;99.90;;;;;;5101281;28;20045;-77
2024/03/12 03:10:03;;;;;;;22.80;13.60;;;6.20;99.90;;;;;;5102877;28;20089;-77
2024/03/12 03:12:29;;;;;;;26.00;14.13;;;6.20;99.90;;;;;;5103077;28;20020;-75
2024/03/12 03:14:55;;;;;;;24.65;14.15;;;6.30;99.90;;;;;;5100343;28;20461;-74
2024/03/12 03:17:20;;;;;;;23.52;14.10;;;6.20;99.90;;;;;;5101717;28;20035;-74
2024/03/12 03:19:48;;;;;;;24.95;14.32;;;6.20;99.90;;;;;;5101599;28;20036;-75
2024/03/12 03:22:14;;;;;;;26.88;15.02;;;6.20;99.90;;;;;;5102891;28;20060;-77
2024/03/12 03:24:40;;;;;;;25.02;14.68;;;6.20;99.90;;;;;;5101896;28;20035;-76
2024/03/12 03:27:07;;;;;;;24.48;14.15;;;6.30;99.90;;;;;;5102767;28;20043;-77
2024/03/12 03:29:35;;;;;;;24.40;13.90;;;6.30;99.90;;;;;;5101155;28;20040;-76
2024/03/12 03:32:02;;;;;;;26.63;15.07;;;6.30;99.90;;;;;;5101752;28;20459;-76
2024/03/12 03:34:28;;;;;;;24.25;14.50;;;6.30;99.90;;;;;;5101032;28;20024;-76
2024/03/12 03:36:58;;;;;;;26.08;15.88;;;6.40;99.90;;;;;;5101721;28;20111;-74
2024/03/12 03:39:24;;;;;;;27.23;14.65;;;6.40;99.90;;;;;;5101123;28;20173;-76
2024/03/12 03:41:51;;;;;;;28.95;15.10;;;6.50;99.90;;;;;;5101265;28;20020;-75
2024/03/12 03:44:16;;;;;;;26.77;15.35;;;6.30;99.90;;;;;;5102462;28;20016;-75
2024/03/12 03:46:43;;;;;;;26.88;15.50;;;6.50;99.90;;;;;;5102924;28;20038;-75
2024/03/12 03:49:08;;;;;;;27.50;15.73;;;6.50;99.90;;;;;;5101025;28;20040;-74
2024/03/12 03:51:35;;;;;;;30.95;16.05;;;6.50;99.90;;;;;;5101396;28;20031;-74
2024/03/12 03:54:01;;;;;;;25.95;15.68;;;6.60;99.90;;;;;;5100860;28;20024;-74
2024/03/12 03:56:27;;;;;;;27.83;15.48;;;6.60;99.90;;;;;;5100885;28;20028;-74
2024/03/12 03:58:56;;;;;;;27.08;15.82;;;6.60;99.90;;;;;;5101746;28;20080;-75
2024/03/12 04:01:23;;;;;;;27.77;16.00;;;6.60;99.90;;;;;;5100536;28;20365;-74
2024/03/12 04:03:53;;;;;;;29.63;17.23;;;6.60;99.90;;;;;;5101096;28;20072;-76
2024/03/12 04:06:22;;;;;;;27.23;16.30;;;6.60;99.90;;;;;;5101065;28;20025;-75
2024/03/12 04:08:51;;;;;;;27.27;15.60;;;6.70;99.90;;;;;;5101978;28;20412;-75
2024/03/12 04:11:21;;;;;;;26.42;15.90;;;6.70;99.90;;;;;;5101006;28;20390;-76
2024/03/12 04:13:54;;;;;;;29.40;16.58;;;6.80;99.90;;;;;;5101095;28;20035;-75
2024/03/12 04:16:20;;;;;;;26.67;15.68;;;6.80;99.90;;;;;;5100772;28;20389;-76
2024/03/12 04:18:45;;;;;;;30.10;16.55;;;6.80;99.90;;;;;;5101057;28;20027;-76
2024/03/12 04:21:11;;;;;;;28.23;16.30;;;6.80;99.90;;;;;;5101261;28;20028;-76
2024/03/12 04:23:38;;;;;;;28.77;16.50;;;6.80;99.90;;;;;;5100683;28;20026;-76
2024/03/12 04:26:03;;;;;;;30.17;17.17;;;6.80;99.90;;;;;;5100793;28;20020;-77
2024/03/12 04:28:29;;;;;;;30.90;16.17;;;6.80;99.90;;;;;;5100467;28;20039;-75
2024/03/12 04:30:55;;;;;;;30.20;16.55;;;6.80;99.90;;;;;;5100042;28;20040;-76
2024/03/12 04:33:21;;;;;;;34.80;17.75;;;6.80;99.90;;;;;;5100857;28;20016;-76
2024/03/12 04:35:47;;;;;;;31.00;16.88;;;6.80;99.90;;;;;;5100474;28;20153;-76
2024/03/12 04:38:14;;;;;;;30.15;16.25;;;6.70;99.90;;;;;;5100843;28;20028;-75
2024/03/12 04:40:43;;;;;;;32.00;17.42;;;6.80;99.90;;;;;;5100800;28;20043;-75
2024/03/12 04:43:09;;;;;;;32.72;18.60;;;6.80;99.90;;;;;;5099851;28;20115;-75
2024/03/12 04:45:35;;;;;;;29.65;16.73;;;6.80;99.90;;;;;;5100356;28;21398;-76
2024/03/12 04:48:00;;;;;;;31.27;17.77;;;6.80;99.90;;;;;;5098148;28;20043;-76
2024/03/12 04:50:26;;;;;;;29.98;17.13;;;6.90;99.90;;;;;;5101598;28;20114;-76
2024/03/12 04:52:52;;;;;;;30.20;17.20;;;6.90;99.90;;;;;;5101649;28;20030;-77
2024/03/12 04:55:17;;;;;;;29.95;17.30;;;7.00;99.90;;;;;;5099685;28;20032;-77
2024/03/12 04:57:43;;;;;;;33.83;17.58;;;6.90;99.90;;;;;;5099946;28;20077;-77
2024/03/12 05:00:18;;;;;;;32.33;18.45;;;6.90;99.90;;;;;;5100957;28;20021;-74
2024/03/12 05:02:45;;;;;;;33.88;17.40;;;6.90;99.90;;;;;;5102555;28;20031;-76
2024/03/12 05:05:13;;;;;;;29.35;16.33;;;6.90;99.90;;;;;;5100304;28;20157;-75
2024/03/12 05:07:39;;;;;;;32.50;18.17;;;6.90;99.90;;;;;;5099941;28;20024;-73
2024/03/12 05:10:06;;;;;;;31.42;17.55;;;6.90;99.90;;;;;;5102337;28;20106;-72
2024/03/12 05:12:31;;;;;;;33.88;19.52;;;6.90;99.90;;;;;;5103525;28;20020;-72
2024/03/12 05:14:57;;;;;;;34.58;18.05;;;6.90;99.90;;;;;;5104575;28;20485;-73
2024/03/12 05:17:22;;;;;;;33.53;18.77;;;6.90;99.90;;;;;;5104018;28;20020;-73
2024/03/12 05:19:48;;;;;;;35.42;18.45;;;6.80;99.90;;;;;;5105196;28;20069;-73
2024/03/12 05:22:14;;;;;;;32.60;18.73;;;6.80;99.90;;;;;;5106024;28;20082;-73
2024/03/12 05:24:40;;;;;;;33.28;18.60;;;6.80;99.90;;;;;;5104510;28;20036;-73
2024/03/12 05:27:06;;;;;;;37.67;20.42;;;6.80;99.90;;;;;;5104433;28;20036;-73
2024/03/12 05:29:42;;;;;;;33.25;18.90;;;6.90;99.90;;;;;;5105062;28;20051;-73
2024/03/12 05:32:28;;;;;;;35.63;19.23;;;6.90;99.90;;;;;;5102720;28;20091;-73
2024/03/12 05:34:58;;;;;;;38.65;20.00;;;7.00;99.90;;;;;;5101533;28;20047;-74
2024/03/12 05:37:40;;;;;;;38.47;19.77;;;7.00;99.90;;;;;;5103600;28;20083;-73
2024/03/12 05:40:17;;;;;;;37.03;19.30;;;6.90;99.90;;;;;;5101800;28;20032;-73
2024/03/12 05:48:13;;;;;;;40.72;19.70;;;7.00;99.90;;;;;;5102774;28;20031;-73
2024/03/12 05:50:39;;;;;;;33.65;19.02;;;7.10;99.90;;;;;;5103320;28;20031;-73
2024/03/12 05:53:05;;;;;;;38.60;19.52;;;7.00;99.90;;;;;;5103999;28;20089;-73
2024/03/12 05:55:31;;;;;;;40.70;19.75;;;6.90;99.90;;;;;;5103275;28;20024;-73
2024/03/12 05:57:56;;;;;;;38.25;19.60;;;7.00;99.90;;;;;;5103325;28;20582;-72
2024/03/12 06:00:23;;;;;;;41.10;21.95;;;6.90;99.90;;;;;;5104753;28;20020;-73
2024/03/12 06:02:49;;;;;;;37.75;20.10;;;7.00;99.90;;;;;;5102400;28;20365;-74
2024/03/12 06:05:16;;;;;;;37.90;20.27;;;7.00;99.90;;;;;;5101877;28;20035;-73
2024/03/12 06:07:42;;;;;;;40.72;20.58;;;7.10;99.90;;;;;;5104075;28;20024;-72
2024/03/12 06:10:08;;;;;;;38.97;21.17;;;7.00;99.90;;;;;;5103696;28;20111;-73
2024/03/12 06:12:34;;;;;;;36.13;20.20;;;7.00;99.90;;;;;;5102514;28;20101;-73
2024/03/12 06:14:59;;;;;;;39.03;20.40;;;7.10;99.90;;;;;;5103291;28;20036;-72
2024/03/12 06:17:25;;;;;;;38.72;21.15;;;7.10;99.90;;;;;;5102839;28;20073;-73
2024/03/12 06:19:51;;;;;;;37.08;21.00;;;7.10;99.90;;;;;;5101904;28;20040;-73
2024/03/12 06:22:17;;;;;;;37.60;20.83;;;7.20;99.90;;;;;;5101181;28;20035;-73
2024/03/12 06:24:43;;;;;;;39.08;21.38;;;7.20;99.90;;;;;;5102560;28;20028;-73
2024/03/12 06:27:14;;;;;;;39.97;22.20;;;7.30;99.90;;;;;;5104425;28;20088;-72
2024/03/12 06:29:39;;;;;;;36.92;20.20;;;7.30;99.90;;;;;;5102712;28;20062;-73
2024/03/12 06:32:05;;;;;;;36.65;20.17;;;7.30;99.90;;;;;;5102160;28;20083;-72
2024/03/12 06:34:31;;;;;;;39.90;22.17;;;7.30;99.90;;;;;;5102396;28;20020;-72
2024/03/12 06:36:59;;;;;;;37.13;20.25;;;7.30;99.90;;;;;;5099713;28;20057;-73
2024/03/12 06:39:31;;;;;;;40.40;21.90;;;7.30;99.90;;;;;;5100268;28;20467;-72
2024/03/12 06:42:01;;;;;;;36.05;20.65;;;7.40;99.90;;;;;;5099108;28;20024;-72
2024/03/12 06:44:28;;;;;;;37.28;20.35;;;7.30;99.90;;;;;;5103404;28;20020;-72
2024/03/12 06:46:55;;;;;;;38.30;20.23;;;7.40;99.90;;;;;;5102912;28;20110;-71
2024/03/12 06:49:21;;;;;;;39.40;21.27;;;7.40;99.90;;;;;;5103865;28;20067;-72
2024/03/12 06:51:47;;;;;;;44.42;22.05;;;7.40;99.90;;;;;;5103598;28;20031;-73
2024/03/12 06:54:13;;;;;;;40.75;22.10;;;7.40;99.90;;;;;;5103586;28;20028;-71
2024/03/12 06:56:46;;;;;;;38.40;20.90;;;7.50;99.90;;;;;;5101428;28;20024;-73
2024/03/12 06:59:15;;;;;;;38.00;21.30;;;7.50;99.90;;;;;;5103753;28;20024;-72
2024/03/12 07:01:41;;;;;;;43.78;21.20;;;7.50;99.90;;;;;;5103701;28;20024;-72
2024/03/12 07:04:10;;;;;;;43.58;21.63;;;7.50;99.90;;;;;;5103736;28;20020;-71
2024/03/12 07:06:37;;;;;;;46.03;22.58;;;7.60;99.90;;;;;;5101722;28;20165;-72
2024/03/12 07:09:09;;;;;;;47.35;22.77;;;7.60;99.90;;;;;;5102884;28;20112;-72
2024/03/12 07:11:39;;;;;;;47.33;23.08;;;7.60;99.90;;;;;;5103394;28;20040;-71
2024/03/12 07:14:12;;;;;;;45.70;22.88;;;7.70;99.90;;;;;;5102166;28;20024;-72
2024/03/12 07:16:41;;;;;;;42.63;22.15;;;7.70;99.90;;;;;;5103151;28;20020;-72
2024/03/12 07:19:10;;;;;;;42.85;22.75;;;7.70;99.90;;;;;;5102001;28;20497;-72
2024/03/12 07:21:37;;;;;;;49.33;24.67;;;7.70;99.90;;;;;;5102620;28;20594;-72
2024/03/12 07:24:06;;;;;;;54.10;25.48;;;7.80;99.90;;;;;;5102788;28;20023;-72
2024/03/12 07:26:32;;;;;;;48.95;25.00;;;7.80;99.90;;;;;;5097294;28;20477;-72
2024/03/12 07:28:58;;;;;;;46.97;23.70;;;7.80;99.90;;;;;;5100453;28;20046;-73
2024/03/12 07:31:25;;;;;;;50.20;25.17;;;7.90;99.90;;;;;;5102166;28;20039;-73
2024/03/12 07:33:51;;;;;;;54.72;25.30;;;7.90;99.90;;;;;;5100698;28;20027;-72
2024/03/12 07:36:17;;;;;;;53.13;24.10;;;7.90;99.90;;;;;;5098512;28;20047;-72
2024/03/12 07:38:44;;;;;;;46.38;24.90;;;7.90;99.90;;;;;;5102928;28;20043;-72
2024/03/12 07:41:09;;;;;;;55.05;26.10;;;7.90;99.90;;;;;;5102824;28;20037;-73
2024/03/12 07:43:35;;;;;;;45.20;25.25;;;8.00;99.90;;;;;;5099779;28;20056;-72
2024/03/12 07:46:02;;;;;;;48.33;24.50;;;8.00;99.90;;;;;;5101756;28;20054;-72
2024/03/12 07:48:28;;;;;;;51.03;26.30;;;8.00;99.90;;;;;;5101801;28;20036;-73
2024/03/12 07:50:58;;;;;;;56.42;26.95;;;8.00;99.90;;;;;;5101092;28;20369;-73
2024/03/12 07:53:28;;;;;;;66.85;27.80;;;8.00;99.90;;;;;;5101881;28;20074;-73
2024/03/12 07:55:56;;;;;;;61.55;26.25;;;8.10;99.90;;;;;;5094851;28;20091;-72
2024/03/12 07:58:22;;;;;;;48.95;26.35;;;8.10;99.90;;;;;;5097321;28;20496;-73
2024/03/12 08:00:48;;;;;;;53.22;26.33;;;8.10;99.90;;;;;;5098708;28;20031;-73
2024/03/12 08:03:14;;;;;;;54.50;25.98;;;8.10;99.90;;;;;;5098448;28;20024;-74
2024/03/12 08:05:40;;;;;;;53.65;25.95;;;8.10;99.90;;;;;;5100391;28;20063;-73
2024/03/12 08:08:08;;;;;;;50.75;27.27;;;8.20;99.90;;;;;;5100152;28;20114;-72
2024/03/12 08:10:33;;;;;;;58.55;28.88;;;8.20;99.90;;;;;;5097498;28;20039;-73
2024/03/12 08:13:00;;;;;;;52.78;26.15;;;8.20;99.90;;;;;;5099594;28;20031;-73
2024/03/12 08:15:27;;;;;;;51.22;25.27;;;8.30;99.90;;;;;;5100532;28;20069;-73
2024/03/12 08:17:54;;;;;;;48.50;25.15;;;8.30;99.90;;;;;;5100318;28;20013;-73
2024/03/12 08:20:22;;;;;;;44.17;23.48;;;8.30;99.90;;;;;;5098874;28;20072;-73
2024/03/12 08:22:47;;;;;;;43.28;23.75;;;8.30;99.90;;;;;;5101086;28;20083;-73
2024/03/12 08:25:13;;;;;;;46.83;24.25;;;8.30;99.90;;;;;;5099755;28;20054;-74
2024/03/12 08:27:40;;;;;;;49.22;26.27;;;8.30;99.90;;;;;;5100288;28;20070;-73
2024/03/12 08:30:11;;;;;;;59.85;27.52;;;8.30;99.90;;;;;;5100143;28;20036;-73
2024/03/12 08:32:38;;;;;;;57.50;28.70;;;8.30;99.90;;;;;;5098564;28;20020;-73
2024/03/12 08:35:04;;;;;;;56.53;30.17;;;8.30;99.90;;;;;;5097648;28;20027;-73
2024/03/12 08:37:29;;;;;;;63.63;30.80;;;8.30;99.90;;;;;;5101650;28;20028;-73
2024/03/12 08:39:55;;;;;;;57.63;27.85;;;8.30;99.90;;;;;;5098588;28;20020;-73
2024/03/12 08:42:21;;;;;;;55.47;27.88;;;8.40;99.90;;;;;;5098940;28;20050;-73
2024/03/12 08:44:47;;;;;;;54.65;27.65;;;8.40;99.90;;;;;;5099009;28;20087;-73
2024/03/12 08:47:13;;;;;;;56.25;29.10;;;8.40;99.90;;;;;;5103296;28;20020;-73
2024/03/12 08:49:40;;;;;;;60.83;30.83;;;8.40;99.90;;;;;;5105242;28;20047;-73
2024/03/12 08:52:06;;;;;;;60.22;31.75;;;8.40;99.90;;;;;;5105249;28;20035;-72
2024/03/12 08:54:32;;;;;;;57.70;30.88;;;8.50;99.90;;;;;;5104362;28;20020;-73
2024/03/12 08:57:00;;;;;;;64.00;32.55;;;8.50;99.90;;;;;;5104675;28;20024;-72
2024/03/12 08:59:26;;;;;;;67.63;32.70;;;8.50;99.90;;;;;;5104439;28;20114;-72
2024/03/12 09:01:57;;;;;;;68.82;34.95;;;8.50;99.90;;;;;;5105361;28;20027;-73
2024/03/12 09:04:23;;;;;;;67.35;34.00;;;8.50;99.90;;;;;;5103685;28;20115;-74
2024/03/12 09:06:48;;;;;;;69.40;35.60;;;8.60;99.90;;;;;;5103617;28;20016;-73
2024/03/12 09:09:15;;;;;;;72.10;37.22;;;8.60;99.90;;;;;;5101884;28;20054;-73
2024/03/12 09:11:41;;;;;;;72.00;37.17;;;8.70;99.90;;;;;;5103259;28;20052;-73
2024/03/12 09:14:07;;;;;;;73.28;37.95;;;8.70;99.90;;;;;;5103526;28;20032;-74
2024/03/12 09:16:34;;;;;;;73.65;36.83;;;8.80;99.90;;;;;;5103911;28;20510;-73
2024/03/12 09:19:00;;;;;;;73.25;37.17;;;8.80;99.90;;;;;;5102225;28;20028;-73
2024/03/12 09:21:27;;;;;;;72.38;36.72;;;8.80;99.90;;;;;;5103751;28;20024;-72
2024/03/12 09:23:53;;;;;;;71.22;36.58;;;8.90;99.90;;;;;;5100281;28;20031;-73
2024/03/12 09:26:19;;;;;;;70.28;35.83;;;9.10;99.90;;;;;;5103773;28;20024;-73
2024/03/12 09:28:46;;;;;;;69.40;35.42;;;9.20;99.90;;;;;;5105205;28;20048;-73
2024/03/12 09:31:12;;;;;;;65.30;34.50;;;9.30;99.90;;;;;;5102769;28;20017;-74
2024/03/12 09:33:38;;;;;;;67.95;34.72;;;9.30;99.90;;;;;;5100542;28;20032;-73
2024/03/12 09:36:04;;;;;;;67.03;34.83;;;9.40;99.90;;;;;;5097444;28;20205;-73
2024/03/12 09:38:30;;;;;;;64.03;33.28;;;9.50;99.90;;;;;;5096700;28;20471;-72
2024/03/12 09:41:00;;;;;;;62.35;34.00;;;9.60;99.90;;;;;;5103961;28;20028;-73
2024/03/12 09:43:31;;;;;;;62.58;32.75;;;9.70;99.90;;;;;;5103660;28;20042;-72
2024/03/12 09:45:57;;;;;;;63.92;31.83;;;9.90;99.90;;;;;;5103273;28;20035;-72
2024/03/12 09:48:22;;;;;;;60.88;31.25;;;10.00;99.90;;;;;;5085695;28;20028;-75
2024/03/12 09:50:51;;;;;;;61.20;32.33;;;10.20;99.90;;;;;;5103370;28;20024;-72
2024/03/12 09:53:17;;;;;;;62.60;33.20;;;10.40;99.90;;;;;;5102197;28;20043;-72
2024/03/12 09:55:44;;;;;;;59.55;33.55;;;10.80;99.90;;;;;;5103719;28;20047;-71
2024/03/12 09:58:10;;;;;;;55.85;32.90;;;11.10;99.90;;;;;;5102736;28;20028;-73
2024/03/12 10:00:36;;;;;;;58.10;33.30;;;11.40;99.90;;;;;;5104392;28;20496;-74
2024/03/12 10:03:03;;;;;;;61.03;33.72;;;11.60;99.90;;;;;;5102086;28;20044;-73
2024/03/12 10:05:29;;;;;;;62.42;35.58;;;11.80;99.90;;;;;;5099847;28;20039;-73
2024/03/12 10:08:14;;;;;;;67.15;37.90;;;11.90;99.90;;;;;;5103474;28;20052;-73
2024/03/12 10:10:44;;;;;;;66.20;37.08;;;12.10;99.90;;;;;;5103615;28;20051;-73
2024/03/12 10:13:20;;;;;;;67.90;37.22;;;12.20;99.90;;;;;;5104443;28;20095;-73
2024/03/12 10:15:51;;;;;;;78.10;42.00;;;12.40;99.90;;;;;;5104006;28;20016;-73
2024/03/12 10:18:18;;;;;;;66.35;35.92;;;12.70;99.90;;;;;;5103364;28;20516;-73
2024/03/12 10:20:54;;;;;;;63.80;36.67;;;12.80;99.90;;;;;;5101937;28;20032;-73
2024/03/12 10:23:21;;;;;;;63.22;34.10;;;12.80;99.90;;;;;;5103436;28;20032;-72
2024/03/12 10:25:48;;;;;;;63.45;36.35;;;12.90;99.90;;;;;;5102908;28;20020;-70
2024/03/12 10:28:19;;;;;;;49.15;30.05;;;13.00;99.90;;;;;;5103574;28;20016;-71
2024/03/12 10:30:45;;;;;;;54.97;31.88;;;12.70;99.90;;;;;;5104148;28;20024;-71
2024/03/12 10:33:17;;;;;;;52.08;30.88;;;12.50;99.90;;;;;;5102255;28;20038;-71
2024/03/12 10:35:44;;;;;;;51.47;29.38;;;12.40;99.90;;;;;;5103512;28;20067;-72
2024/03/12 10:38:27;;;;;;;49.50;27.35;;;12.30;99.90;;;;;;5104234;28;20066;-70
2024/03/12 10:40:56;;;;;;;46.55;26.23;;;12.10;99.90;;;;;;5103488;28;20024;-71
2024/03/12 10:43:26;;;;;;;46.25;27.65;;;12.00;99.90;;;;;;5102524;28;20020;-71
2024/03/12 10:45:55;;;;;;;45.08;27.00;;;12.20;99.90;;;;;;5103392;28;20031;-70
2024/03/12 10:48:21;;;;;;;46.42;26.70;;;12.60;99.90;;;;;;5101739;28;20050;-71
2024/03/12 10:50:48;;;;;;;46.40;27.90;;;13.00;99.90;;;;;;5102485;28;20052;-71
2024/03/12 10:53:14;;;;;;;44.40;26.38;;;13.20;99.90;;;;;;5102803;28;20045;-72
2024/03/12 10:55:41;;;;;;;46.20;28.13;;;13.10;99.90;;;;;;5102405;28;20460;-71
2024/03/12 10:58:09;;;;;;;46.45;28.10;;;12.90;99.90;;;;;;5101629;28;20102;-71
2024/03/12 11:00:39;;;;;;;52.17;30.58;;;12.60;99.90;;;;;;5102233;28;20035;-72
2024/03/12 11:03:11;;;;;;;50.20;29.52;;;12.30;99.90;;;;;;5102478;28;20380;-71
2024/03/12 11:05:39;;;;;;;52.83;31.08;;;11.90;99.90;;;;;;5099773;28;20020;-71
2024/03/12 11:08:09;;;;;;;57.28;32.53;;;11.80;99.90;;;;;;5102428;28;20048;-70
2024/03/12 11:10:35;;;;;;;57.63;33.28;;;11.70;99.90;;;;;;5101086;28;20031;-70
2024/03/12 11:13:02;;;;;;;59.40;33.78;;;11.60;99.90;;;;;;5102658;28;20016;-69
2024/03/12 11:15:28;;;;;;;61.38;33.30;;;11.50;99.90;;;;;;5100733;28;20032;-72
2024/03/12 11:17:55;;;;;;;61.60;34.08;;;11.40;99.90;;;;;;5100270;28;20302;-70
2024/03/12 11:20:23;;;;;;;61.13;34.17;;;11.30;99.90;;;;;;5102452;28;20020;-71
2024/03/12 11:22:57;;;;;;;64.25;36.38;;;11.20;99.90;;;;;;5101767;28;20020;-71
2024/03/12 11:25:45;;;;;;;64.47;34.58;;;11.10;99.90;;;;;;5101936;28;20062;-70
2024/03/12 11:28:20;;;;;;;56.67;30.58;;;11.10;99.90;;;;;;5098888;28;20052;-71
2024/03/12 11:31:04;;;;;;;65.43;34.38;;;11.00;99.90;;;;;;5099578;28;20042;-71
2024/03/12 11:33:38;;;;;;;61.45;32.90;;;10.90;99.90;;;;;;5101381;28;20036;-71
2024/03/12 11:36:05;;;;;;;59.97;32.90;;;10.90;99.90;;;;;;5101222;28;20036;-72
2024/03/12 11:38:30;;;;;;;59.17;32.40;;;10.90;99.90;;;;;;5101608;28;20088;-72
2024/03/12 11:40:56;;;;;;;64.68;33.50;;;10.90;99.90;;;;;;5100866;28;20016;-72
2024/03/12 11:43:39;;;;;;;62.05;32.08;;;10.90;99.90;;;;;;5100567;28;20048;-71
2024/03/12 11:46:29;;;;;;;60.15;33.35;;;10.90;99.90;;;;;;5102244;28;20032;-72
2024/03/12 11:48:54;;;;;;;60.50;32.20;;;10.90;99.90;;;;;;5092884;28;20056;-70
2024/03/12 11:51:20;;;;;;;63.72;32.53;;;10.90;99.90;;;;;;5100544;28;20034;-71
2024/03/12 11:53:47;;;;;;;63.65;32.97;;;10.90;99.90;;;;;;5102381;28;20047;-71
2024/03/12 11:56:21;;;;;;;60.03;31.58;;;11.00;99.90;;;;;;5100802;28;20024;-70
2024/03/12 11:58:52;;;;;;;61.65;31.48;;;10.90;99.90;;;;;;5101778;28;20483;-71
2024/03/12 12:01:18;;;;;;;58.22;30.42;;;10.90;99.90;;;;;;5101658;28;20039;-72
2024/03/12 12:03:54;;;;;;;61.95;31.73;;;10.80;99.90;;;;;;5100634;28;20033;-71
2024/03/12 12:06:20;;;;;;;62.03;33.67;;;10.80;99.90;;;;;;5101492;28;20028;-71
2024/03/12 12:08:47;;;;;;;62.47;32.63;;;10.80;99.90;;;;;;5101187;28;20497;-71
2024/03/12 12:11:15;;;;;;;64.72;33.10;;;10.70;99.90;;;;;;5101776;28;20023;-70
2024/03/12 12:13:41;;;;;;;62.92;32.75;;;10.70;99.90;;;;;;5100120;28;20373;-70
2024/03/12 12:16:12;;;;;;;60.28;32.35;;;10.70;99.90;;;;;;5101679;28;20024;-70
2024/03/12 12:18:40;;;;;;;55.85;28.70;;;10.60;99.90;;;;;;5099395;28;20024;-71
2024/03/12 12:21:15;;;;;;;63.72;32.40;;;10.60;99.90;;;;;;5101363;28;20635;-70
2024/03/12 12:23:44;;;;;;;62.28;31.55;;;10.60;99.90;;;;;;5101646;28;20027;-70
2024/03/12 12:26:18;;;;;;;61.00;31.48;;;10.50;99.90;;;;;;5101083;28;20038;-71
2024/03/12 12:28:45;;;;;;;;;;;10.60;99.90;;;;;;5101592;28;20107;-71
2024/03/12 12:31:16;;;;;;;60.97;30.10;;;10.70;99.90;;;;;;5100940;28;19908;-70
2024/03/12 12:33:46;;;;;;;60.25;30.20;;;10.90;99.90;;;;;;5100960;28;20054;-70
2024/03/12 12:36:13;;;;;;;55.03;30.20;;;11.10;99.90;;;;;;5101327;28;20024;-71
2024/03/12 12:38:43;;;;;;;60.92;31.08;;;11.50;99.90;;;;;;5099921;28;20122;-70
2024/03/12 12:41:13;;;;;;;56.05;30.17;;;11.90;99.90;;;;;;5101242;28;20026;-70
2024/03/12 12:43:40;;;;;;;54.35;29.13;;;12.10;99.90;;;;;;5100069;28;20072;-71